sensor_id;sensor_type;location;lat;lon;timestamp;temperature;humidity
79026;DHT22;71097;44.760;37.726;2023-07-02T00:00:44;21.64;81.52
79026;DHT22;71097;44.760;37.726;2023-07-02T00:01:47;21.62;81.43
79026;DHT22;71097;44.760;37.726;2023-07-02T00:02:48;21.61;81.74
79026;DHT22;71097;44.760;37.726;2023-07-02T00:03:50;21.62;81.72
79026;DHT22;71097;44.760;37.726;2023-07-02T00:04:52;21.67;81.01
79026;DHT22;71097;44.760;37.726;2023-07-02T00:05:59;21.70;81.39
79026;DHT22;71097;44.760;37.726;2023-07-02T00:07:01;21.68;81.91
79026;DHT22;71097;44.760;37.726;2023-07-02T00:08:03;21.69;81.83
79026;DHT22;71097;44.760;37.726;2023-07-02T00:09:04;21.69;81.59
79026;DHT22;71097;44.760;37.726;2023-07-02T00:10:06;21.72;81.37
79026;DHT22;71097;44.760;37.726;2023-07-02T00:11:08;21.78;81.17
79026;DHT22;71097;44.760;37.726;2023-07-02T00:12:13;21.83;80.83
79026;DHT22;71097;44.760;37.726;2023-07-02T00:13:15;21.89;80.43
79026;DHT22;71097;44.760;37.726;2023-07-02T00:14:17;21.91;80.60
79026;DHT22;71097;44.760;37.726;2023-07-02T00:15:19;21.92;80.46
79026;DHT22;71097;44.760;37.726;2023-07-02T00:16:21;21.92;81.22
79026;DHT22;71097;44.760;37.726;2023-07-02T00:17:23;21.87;81.18
79026;DHT22;71097;44.760;37.726;2023-07-02T00:18:25;21.85;81.33
79026;DHT22;71097;44.760;37.726;2023-07-02T00:19:35;21.82;81.34
79026;DHT22;71097;44.760;37.726;2023-07-02T00:20:36;21.82;81.17
79026;DHT22;71097;44.760;37.726;2023-07-02T00:21:39;21.83;81.42
79026;DHT22;71097;44.760;37.726;2023-07-02T00:22:42;21.80;81.91
79026;DHT22;71097;44.760;37.726;2023-07-02T00:23:46;21.78;82.20
79026;DHT22;71097;44.760;37.726;2023-07-02T00:24:50;21.80;81.75
79026;DHT22;71097;44.760;37.726;2023-07-02T00:25:58;21.81;81.54
79026;DHT22;71097;44.760;37.726;2023-07-02T00:26:59;21.82;81.41
79026;DHT22;71097;44.760;37.726;2023-07-02T00:28:01;21.84;81.48
79026;DHT22;71097;44.760;37.726;2023-07-02T00:29:04;21.81;81.14
79026;DHT22;71097;44.760;37.726;2023-07-02T00:30:08;21.81;81.26
79026;DHT22;71097;44.760;37.726;2023-07-02T00:31:10;21.82;81.14
79026;DHT22;71097;44.760;37.726;2023-07-02T00:32:12;21.80;80.81
79026;DHT22;71097;44.760;37.726;2023-07-02T00:33:15;21.79;81.03
79026;DHT22;71097;44.760;37.726;2023-07-02T00:34:18;21.77;81.10
79026;DHT22;71097;44.760;37.726;2023-07-02T00:35:20;21.75;80.92
79026;DHT22;71097;44.760;37.726;2023-07-02T00:36:21;21.74;81.07
79026;DHT22;71097;44.760;37.726;2023-07-02T00:37:23;21.79;80.55
79026;DHT22;71097;44.760;37.726;2023-07-02T00:38:25;21.85;80.33
79026;DHT22;71097;44.760;37.726;2023-07-02T00:39:27;21.91;80.01
79026;DHT22;71097;44.760;37.726;2023-07-02T00:40:28;21.93;79.85
79026;DHT22;71097;44.760;37.726;2023-07-02T00:41:30;21.97;79.48
79026;DHT22;71097;44.760;37.726;2023-07-02T00:42:32;21.97;79.45
79026;DHT22;71097;44.760;37.726;2023-07-02T00:43:34;21.96;79.40
79026;DHT22;71097;44.760;37.726;2023-07-02T00:44:35;21.92;79.84
79026;DHT22;71097;44.760;37.726;2023-07-02T00:45:41;21.90;79.72
79026;DHT22;71097;44.760;37.726;2023-07-02T00:46:43;21.89;79.81
79026;DHT22;71097;44.760;37.726;2023-07-02T00:47:45;21.90;79.25
79026;DHT22;71097;44.760;37.726;2023-07-02T00:48:54;21.89;79.92
79026;DHT22;71097;44.760;37.726;2023-07-02T00:49:57;21.84;80.02
79026;DHT22;71097;44.760;37.726;2023-07-02T00:50:59;21.79;80.13
79026;DHT22;71097;44.760;37.726;2023-07-02T00:52:02;21.77;80.34
79026;DHT22;71097;44.760;37.726;2023-07-02T00:53:03;21.75;80.29
79026;DHT22;71097;44.760;37.726;2023-07-02T00:54:05;21.74;80.07
79026;DHT22;71097;44.760;37.726;2023-07-02T00:55:08;21.73;80.24
79026;DHT22;71097;44.760;37.726;2023-07-02T00:56:10;21.68;80.32
79026;DHT22;71097;44.760;37.726;2023-07-02T00:57:12;21.72;80.32
79026;DHT22;71097;44.760;37.726;2023-07-02T00:58:14;21.70;80.53
79026;DHT22;71097;44.760;37.726;2023-07-02T00:59:17;21.73;80.15
79026;DHT22;71097;44.760;37.726;2023-07-02T01:00:18;21.75;80.04
79026;DHT22;71097;44.760;37.726;2023-07-02T01:01:27;21.76;79.99
79026;DHT22;71097;44.760;37.726;2023-07-02T01:02:34;21.75;79.93
79026;DHT22;71097;44.760;37.726;2023-07-02T01:03:36;21.70;80.09
79026;DHT22;71097;44.760;37.726;2023-07-02T01:04:39;21.69;80.78
79026;DHT22;71097;44.760;37.726;2023-07-02T01:05:41;21.67;80.75
79026;DHT22;71097;44.760;37.726;2023-07-02T01:06:43;21.63;80.93
79026;DHT22;71097;44.760;37.726;2023-07-02T01:07:45;21.64;80.84
79026;DHT22;71097;44.760;37.726;2023-07-02T01:08:47;21.61;81.00
79026;DHT22;71097;44.760;37.726;2023-07-02T01:09:49;21.58;81.20
79026;DHT22;71097;44.760;37.726;2023-07-02T01:10:51;21.55;81.06
79026;DHT22;71097;44.760;37.726;2023-07-02T01:11:56;21.50;81.07
79026;DHT22;71097;44.760;37.726;2023-07-02T01:13:12;21.55;81.06
79026;DHT22;71097;44.760;37.726;2023-07-02T01:14:25;21.53;81.22
79026;DHT22;71097;44.760;37.726;2023-07-02T01:15:28;21.55;81.14
79026;DHT22;71097;44.760;37.726;2023-07-02T01:16:30;21.53;81.41
79026;DHT22;71097;44.760;37.726;2023-07-02T01:17:35;21.51;81.62
79026;DHT22;71097;44.760;37.726;2023-07-02T01:18:43;21.53;82.06
79026;DHT22;71097;44.760;37.726;2023-07-02T01:19:52;21.60;81.75
79026;DHT22;71097;44.760;37.726;2023-07-02T01:20:55;21.61;81.55
79026;DHT22;71097;44.760;37.726;2023-07-02T01:21:57;21.62;80.95
79026;DHT22;71097;44.760;37.726;2023-07-02T01:22:59;21.68;81.61
79026;DHT22;71097;44.760;37.726;2023-07-02T01:24:05;21.64;81.09
79026;DHT22;71097;44.760;37.726;2023-07-02T01:25:07;21.69;80.76
79026;DHT22;71097;44.760;37.726;2023-07-02T01:26:11;21.69;81.23
79026;DHT22;71097;44.760;37.726;2023-07-02T01:27:19;21.72;81.23
79026;DHT22;71097;44.760;37.726;2023-07-02T01:28:22;21.68;81.20
79026;DHT22;71097;44.760;37.726;2023-07-02T01:29:26;21.69;80.95
79026;DHT22;71097;44.760;37.726;2023-07-02T01:30:27;21.69;81.11
79026;DHT22;71097;44.760;37.726;2023-07-02T01:31:29;21.66;81.55
79026;DHT22;71097;44.760;37.726;2023-07-02T01:32:31;21.66;81.75
79026;DHT22;71097;44.760;37.726;2023-07-02T01:33:32;21.66;81.62
79026;DHT22;71097;44.760;37.726;2023-07-02T01:34:34;21.66;81.62
79026;DHT22;71097;44.760;37.726;2023-07-02T01:35:36;21.66;81.46
79026;DHT22;71097;44.760;37.726;2023-07-02T01:36:38;21.64;81.45
79026;DHT22;71097;44.760;37.726;2023-07-02T01:37:40;21.70;81.29
79026;DHT22;71097;44.760;37.726;2023-07-02T01:38:42;21.72;81.86
79026;DHT22;71097;44.760;37.726;2023-07-02T01:39:45;21.70;81.58
79026;DHT22;71097;44.760;37.726;2023-07-02T01:40:46;21.69;81.35
79026;DHT22;71097;44.760;37.726;2023-07-02T01:41:53;21.77;81.52
79026;DHT22;71097;44.760;37.726;2023-07-02T01:42:54;21.76;81.36
79026;DHT22;71097;44.760;37.726;2023-07-02T01:43:56;21.74;81.65
79026;DHT22;71097;44.760;37.726;2023-07-02T01:44:58;21.72;81.46
79026;DHT22;71097;44.760;37.726;2023-07-02T01:46:00;21.75;81.78
79026;DHT22;71097;44.760;37.726;2023-07-02T01:47:03;21.74;81.70
79026;DHT22;71097;44.760;37.726;2023-07-02T01:48:06;21.77;81.40
79026;DHT22;71097;44.760;37.726;2023-07-02T01:49:07;21.80;81.55
79026;DHT22;71097;44.760;37.726;2023-07-02T01:50:09;21.81;81.55
79026;DHT22;71097;44.760;37.726;2023-07-02T01:51:11;21.87;81.39
79026;DHT22;71097;44.760;37.726;2023-07-02T01:52:12;21.85;81.04
79026;DHT22;71097;44.760;37.726;2023-07-02T01:53:14;21.87;81.38
79026;DHT22;71097;44.760;37.726;2023-07-02T01:54:19;21.82;81.21
79026;DHT22;71097;44.760;37.726;2023-07-02T01:55:21;21.79;81.06
79026;DHT22;71097;44.760;37.726;2023-07-02T01:56:22;21.82;80.92
79026;DHT22;71097;44.760;37.726;2023-07-02T01:57:24;21.83;81.22
79026;DHT22;71097;44.760;37.726;2023-07-02T01:58:25;21.83;80.94
79026;DHT22;71097;44.760;37.726;2023-07-02T01:59:27;21.79;80.98
79026;DHT22;71097;44.760;37.726;2023-07-02T02:00:28;21.77;80.99
79026;DHT22;71097;44.760;37.726;2023-07-02T02:01:30;21.77;81.31
79026;DHT22;71097;44.760;37.726;2023-07-02T02:02:33;21.75;81.24
79026;DHT22;71097;44.760;37.726;2023-07-02T02:03:35;21.68;81.31
79026;DHT22;71097;44.760;37.726;2023-07-02T02:04:36;21.70;81.49
79026;DHT22;71097;44.760;37.726;2023-07-02T02:05:38;21.77;80.98
79026;DHT22;71097;44.760;37.726;2023-07-02T02:06:40;21.78;80.99
79026;DHT22;71097;44.760;37.726;2023-07-02T02:07:42;21.79;81.05
79026;DHT22;71097;44.760;37.726;2023-07-02T02:08:44;21.81;80.73
79026;DHT22;71097;44.760;37.726;2023-07-02T02:09:45;21.83;81.49
79026;DHT22;71097;44.760;37.726;2023-07-02T02:10:47;21.78;81.91
79026;DHT22;71097;44.760;37.726;2023-07-02T02:11:49;21.75;81.72
79026;DHT22;71097;44.760;37.726;2023-07-02T02:12:52;21.77;81.20
79026;DHT22;71097;44.760;37.726;2023-07-02T02:13:53;21.79;81.49
79026;DHT22;71097;44.760;37.726;2023-07-02T02:14:54;21.77;81.08
79026;DHT22;71097;44.760;37.726;2023-07-02T02:15:57;21.77;81.39
79026;DHT22;71097;44.760;37.726;2023-07-02T02:16:59;21.76;81.70
79026;DHT22;71097;44.760;37.726;2023-07-02T02:18:00;21.74;81.62
79026;DHT22;71097;44.760;37.726;2023-07-02T02:19:02;21.74;81.55
79026;DHT22;71097;44.760;37.726;2023-07-02T02:20:05;21.73;81.40
79026;DHT22;71097;44.760;37.726;2023-07-02T02:21:07;21.73;81.64
79026;DHT22;71097;44.760;37.726;2023-07-02T02:22:08;21.75;81.69
79026;DHT22;71097;44.760;37.726;2023-07-02T02:23:10;21.73;81.90
79026;DHT22;71097;44.760;37.726;2023-07-02T02:24:11;21.73;81.95
79026;DHT22;71097;44.760;37.726;2023-07-02T02:25:13;21.74;82.13
79026;DHT22;71097;44.760;37.726;2023-07-02T02:26:15;21.78;82.07
79026;DHT22;71097;44.760;37.726;2023-07-02T02:27:16;21.82;81.91
79026;DHT22;71097;44.760;37.726;2023-07-02T02:28:17;21.85;81.68
79026;DHT22;71097;44.760;37.726;2023-07-02T02:29:19;21.93;81.85
79026;DHT22;71097;44.760;37.726;2023-07-02T02:30:21;21.98;81.79
79026;DHT22;71097;44.760;37.726;2023-07-02T02:31:23;22.02;81.45
79026;DHT22;71097;44.760;37.726;2023-07-02T02:32:25;22.05;81.36
79026;DHT22;71097;44.760;37.726;2023-07-02T02:33:27;22.06;81.10
79026;DHT22;71097;44.760;37.726;2023-07-02T02:34:29;22.11;81.19
79026;DHT22;71097;44.760;37.726;2023-07-02T02:35:30;22.16;81.84
79026;DHT22;71097;44.760;37.726;2023-07-02T02:36:32;22.14;81.34
79026;DHT22;71097;44.760;37.726;2023-07-02T02:37:36;22.17;81.75
79026;DHT22;71097;44.760;37.726;2023-07-02T02:38:39;22.18;81.75
79026;DHT22;71097;44.760;37.726;2023-07-02T02:39:41;22.25;82.03
79026;DHT22;71097;44.760;37.726;2023-07-02T02:40:42;22.28;81.55
79026;DHT22;71097;44.760;37.726;2023-07-02T02:41:45;22.35;81.42
79026;DHT22;71097;44.760;37.726;2023-07-02T02:42:49;22.40;81.62
79026;DHT22;71097;44.760;37.726;2023-07-02T02:43:51;22.43;81.67
79026;DHT22;71097;44.760;37.726;2023-07-02T02:44:53;22.50;81.36
79026;DHT22;71097;44.760;37.726;2023-07-02T02:45:55;22.51;81.59
79026;DHT22;71097;44.760;37.726;2023-07-02T02:46:57;22.56;80.90
79026;DHT22;71097;44.760;37.726;2023-07-02T02:47:58;22.66;80.78
79026;DHT22;71097;44.760;37.726;2023-07-02T02:49:00;22.71;80.70
79026;DHT22;71097;44.760;37.726;2023-07-02T02:50:01;22.79;80.42
79026;DHT22;71097;44.760;37.726;2023-07-02T02:51:03;22.85;79.82
79026;DHT22;71097;44.760;37.726;2023-07-02T02:52:05;22.92;79.74
79026;DHT22;71097;44.760;37.726;2023-07-02T02:53:09;23.01;79.77
79026;DHT22;71097;44.760;37.726;2023-07-02T02:54:11;23.10;79.29
79026;DHT22;71097;44.760;37.726;2023-07-02T02:55:13;23.15;79.49
79026;DHT22;71097;44.760;37.726;2023-07-02T02:56:15;23.22;79.15
79026;DHT22;71097;44.760;37.726;2023-07-02T02:57:17;23.28;79.40
79026;DHT22;71097;44.760;37.726;2023-07-02T02:58:18;23.32;79.04
79026;DHT22;71097;44.760;37.726;2023-07-02T02:59:20;23.38;78.89
79026;DHT22;71097;44.760;37.726;2023-07-02T03:00:21;23.38;78.66
79026;DHT22;71097;44.760;37.726;2023-07-02T03:01:23;23.38;78.69
79026;DHT22;71097;44.760;37.726;2023-07-02T03:02:25;23.41;78.77
79026;DHT22;71097;44.760;37.726;2023-07-02T03:03:27;23.44;78.86
79026;DHT22;71097;44.760;37.726;2023-07-02T03:04:28;23.46;78.94
79026;DHT22;71097;44.760;37.726;2023-07-02T03:05:30;23.53;78.02
79026;DHT22;71097;44.760;37.726;2023-07-02T03:06:32;23.58;77.69
79026;DHT22;71097;44.760;37.726;2023-07-02T03:07:33;23.55;78.50
79026;DHT22;71097;44.760;37.726;2023-07-02T03:08:35;23.58;78.37
79026;DHT22;71097;44.760;37.726;2023-07-02T03:09:36;23.56;78.49
79026;DHT22;71097;44.760;37.726;2023-07-02T03:10:37;23.56;78.59
79026;DHT22;71097;44.760;37.726;2023-07-02T03:11:39;23.58;78.68
79026;DHT22;71097;44.760;37.726;2023-07-02T03:12:41;23.57;78.64
79026;DHT22;71097;44.760;37.726;2023-07-02T03:13:42;23.60;78.63
79026;DHT22;71097;44.760;37.726;2023-07-02T03:14:44;23.62;78.39
79026;DHT22;71097;44.760;37.726;2023-07-02T03:15:45;23.59;78.47
79026;DHT22;71097;44.760;37.726;2023-07-02T03:16:47;23.60;78.34
79026;DHT22;71097;44.760;37.726;2023-07-02T03:17:48;23.64;78.18
79026;DHT22;71097;44.760;37.726;2023-07-02T03:18:50;23.71;78.40
79026;DHT22;71097;44.760;37.726;2023-07-02T03:19:52;23.73;78.07
79026;DHT22;71097;44.760;37.726;2023-07-02T03:20:53;23.74;77.52
79026;DHT22;71097;44.760;37.726;2023-07-02T03:21:55;23.73;77.72
79026;DHT22;71097;44.760;37.726;2023-07-02T03:23:00;23.70;77.90
79026;DHT22;71097;44.760;37.726;2023-07-02T03:24:02;23.71;77.98
79026;DHT22;71097;44.760;37.726;2023-07-02T03:25:04;23.72;78.00
79026;DHT22;71097;44.760;37.726;2023-07-02T03:26:07;23.74;78.32
79026;DHT22;71097;44.760;37.726;2023-07-02T03:27:08;23.76;77.65
79026;DHT22;71097;44.760;37.726;2023-07-02T03:28:15;23.81;77.47
79026;DHT22;71097;44.760;37.726;2023-07-02T03:29:16;23.81;77.47
79026;DHT22;71097;44.760;37.726;2023-07-02T03:30:20;23.86;77.78
79026;DHT22;71097;44.760;37.726;2023-07-02T03:31:22;23.90;77.45
79026;DHT22;71097;44.760;37.726;2023-07-02T03:32:23;23.91;77.27
79026;DHT22;71097;44.760;37.726;2023-07-02T03:33:25;23.96;77.06
79026;DHT22;71097;44.760;37.726;2023-07-02T03:34:26;24.00;76.67
79026;DHT22;71097;44.760;37.726;2023-07-02T03:35:28;23.96;76.42
79026;DHT22;71097;44.760;37.726;2023-07-02T03:36:29;23.96;76.39
79026;DHT22;71097;44.760;37.726;2023-07-02T03:37:31;23.97;76.55
79026;DHT22;71097;44.760;37.726;2023-07-02T03:38:32;24.01;76.29
79026;DHT22;71097;44.760;37.726;2023-07-02T03:39:34;24.03;76.18
79026;DHT22;71097;44.760;37.726;2023-07-02T03:40:35;24.08;76.37
79026;DHT22;71097;44.760;37.726;2023-07-02T03:41:37;24.12;76.67
79026;DHT22;71097;44.760;37.726;2023-07-02T03:42:38;24.23;76.32
79026;DHT22;71097;44.760;37.726;2023-07-02T03:43:40;24.38;75.94
79026;DHT22;71097;44.760;37.726;2023-07-02T03:44:41;24.57;75.56
79026;DHT22;71097;44.760;37.726;2023-07-02T03:45:43;24.71;74.46
79026;DHT22;71097;44.760;37.726;2023-07-02T03:46:45;24.91;75.16
79026;DHT22;71097;44.760;37.726;2023-07-02T03:47:52;25.09;74.52
79026;DHT22;71097;44.760;37.726;2023-07-02T03:48:53;25.20;72.38
79026;DHT22;71097;44.760;37.726;2023-07-02T03:49:55;25.29;72.87
79026;DHT22;71097;44.760;37.726;2023-07-02T03:50:57;25.43;72.41
79026;DHT22;71097;44.760;37.726;2023-07-02T03:51:58;25.48;70.42
79026;DHT22;71097;44.760;37.726;2023-07-02T03:53:00;25.46;70.79
79026;DHT22;71097;44.760;37.726;2023-07-02T03:54:02;25.52;70.89
79026;DHT22;71097;44.760;37.726;2023-07-02T03:55:04;25.53;70.51
79026;DHT22;71097;44.760;37.726;2023-07-02T03:56:06;25.64;70.69
79026;DHT22;71097;44.760;37.726;2023-07-02T03:57:08;25.69;71.00
79026;DHT22;71097;44.760;37.726;2023-07-02T03:58:12;25.74;70.06
79026;DHT22;71097;44.760;37.726;2023-07-02T03:59:14;25.75;68.97
79026;DHT22;71097;44.760;37.726;2023-07-02T04:00:18;25.73;69.78
79026;DHT22;71097;44.760;37.726;2023-07-02T04:01:20;25.74;69.68
79026;DHT22;71097;44.760;37.726;2023-07-02T04:02:22;25.73;70.03
79026;DHT22;71097;44.760;37.726;2023-07-02T04:03:23;25.77;68.94
79026;DHT22;71097;44.760;37.726;2023-07-02T04:04:25;25.75;69.26
79026;DHT22;71097;44.760;37.726;2023-07-02T04:05:27;25.80;69.74
79026;DHT22;71097;44.760;37.726;2023-07-02T04:06:29;25.76;69.74
79026;DHT22;71097;44.760;37.726;2023-07-02T04:07:36;25.78;69.10
79026;DHT22;71097;44.760;37.726;2023-07-02T04:08:37;25.77;69.16
79026;DHT22;71097;44.760;37.726;2023-07-02T04:09:39;25.78;68.84
79026;DHT22;71097;44.760;37.726;2023-07-02T04:10:41;25.83;69.55
79026;DHT22;71097;44.760;37.726;2023-07-02T04:11:43;26.02;69.05
79026;DHT22;71097;44.760;37.726;2023-07-02T04:12:45;26.19;67.91
79026;DHT22;71097;44.760;37.726;2023-07-02T04:13:46;26.18;67.78
79026;DHT22;71097;44.760;37.726;2023-07-02T04:14:48;26.16;67.90
79026;DHT22;71097;44.760;37.726;2023-07-02T04:15:50;26.18;68.43
79026;DHT22;71097;44.760;37.726;2023-07-02T04:16:52;26.12;67.88
79026;DHT22;71097;44.760;37.726;2023-07-02T04:17:54;26.11;67.96
79026;DHT22;71097;44.760;37.726;2023-07-02T04:18:55;26.02;68.42
79026;DHT22;71097;44.760;37.726;2023-07-02T04:19:59;26.02;68.24
79026;DHT22;71097;44.760;37.726;2023-07-02T04:21:02;26.08;68.46
79026;DHT22;71097;44.760;37.726;2023-07-02T04:22:04;26.16;68.20
79026;DHT22;71097;44.760;37.726;2023-07-02T04:23:06;26.28;67.20
79026;DHT22;71097;44.760;37.726;2023-07-02T04:24:08;26.32;67.65
79026;DHT22;71097;44.760;37.726;2023-07-02T04:25:10;26.33;67.23
79026;DHT22;71097;44.760;37.726;2023-07-02T04:26:18;26.25;67.93
79026;DHT22;71097;44.760;37.726;2023-07-02T04:27:22;26.24;67.72
79026;DHT22;71097;44.760;37.726;2023-07-02T04:28:24;26.28;67.45
79026;DHT22;71097;44.760;37.726;2023-07-02T04:29:26;26.39;67.20
79026;DHT22;71097;44.760;37.726;2023-07-02T04:30:28;26.40;67.22
79026;DHT22;71097;44.760;37.726;2023-07-02T04:31:30;26.33;67.17
79026;DHT22;71097;44.760;37.726;2023-07-02T04:32:31;26.32;67.23
79026;DHT22;71097;44.760;37.726;2023-07-02T04:33:33;26.43;66.20
79026;DHT22;71097;44.760;37.726;2023-07-02T04:34:37;26.46;67.52
79026;DHT22;71097;44.760;37.726;2023-07-02T04:35:40;26.53;66.88
79026;DHT22;71097;44.760;37.726;2023-07-02T04:36:43;26.56;66.78
79026;DHT22;71097;44.760;37.726;2023-07-02T04:37:50;26.35;66.68
79026;DHT22;71097;44.760;37.726;2023-07-02T04:38:52;26.33;67.01
79026;DHT22;71097;44.760;37.726;2023-07-02T04:39:54;26.32;67.17
79026;DHT22;71097;44.760;37.726;2023-07-02T04:40:56;26.30;67.18
79026;DHT22;71097;44.760;37.726;2023-07-02T04:42:06;26.27;66.81
79026;DHT22;71097;44.760;37.726;2023-07-02T04:43:08;26.18;67.31
79026;DHT22;71097;44.760;37.726;2023-07-02T04:44:10;26.17;67.29
79026;DHT22;71097;44.760;37.726;2023-07-02T04:45:13;26.05;67.43
79026;DHT22;71097;44.760;37.726;2023-07-02T04:46:16;25.87;67.85
79026;DHT22;71097;44.760;37.726;2023-07-02T04:47:21;25.88;68.71
79026;DHT22;71097;44.760;37.726;2023-07-02T04:48:23;25.92;68.94
79026;DHT22;71097;44.760;37.726;2023-07-02T04:49:25;26.04;68.36
79026;DHT22;71097;44.760;37.726;2023-07-02T04:50:27;26.09;67.89
79026;DHT22;71097;44.760;37.726;2023-07-02T04:51:29;26.03;67.87
79026;DHT22;71097;44.760;37.726;2023-07-02T04:52:36;25.97;67.79
79026;DHT22;71097;44.760;37.726;2023-07-02T04:53:38;25.92;68.08
79026;DHT22;71097;44.760;37.726;2023-07-02T04:54:42;25.84;68.11
79026;DHT22;71097;44.760;37.726;2023-07-02T04:55:46;25.80;68.73
79026;DHT22;71097;44.760;37.726;2023-07-02T04:56:49;25.78;69.07
79026;DHT22;71097;44.760;37.726;2023-07-02T04:57:50;25.78;68.85
79026;DHT22;71097;44.760;37.726;2023-07-02T04:58:53;25.81;68.71
79026;DHT22;71097;44.760;37.726;2023-07-02T04:59:55;25.99;69.09
79026;DHT22;71097;44.760;37.726;2023-07-02T05:00:57;26.16;67.82
79026;DHT22;71097;44.760;37.726;2023-07-02T05:01:59;26.20;68.06
79026;DHT22;71097;44.760;37.726;2023-07-02T05:03:01;26.21;67.77
79026;DHT22;71097;44.760;37.726;2023-07-02T05:04:04;26.38;67.19
79026;DHT22;71097;44.760;37.726;2023-07-02T05:05:06;26.49;66.84
79026;DHT22;71097;44.760;37.726;2023-07-02T05:06:09;26.60;66.99
79026;DHT22;71097;44.760;37.726;2023-07-02T05:07:11;26.68;65.93
79026;DHT22;71097;44.760;37.726;2023-07-02T05:08:13;26.89;65.54
79026;DHT22;71097;44.760;37.726;2023-07-02T05:09:15;27.01;64.80
79026;DHT22;71097;44.760;37.726;2023-07-02T05:10:17;27.10;65.13
79026;DHT22;71097;44.760;37.726;2023-07-02T05:11:19;27.29;65.21
79026;DHT22;71097;44.760;37.726;2023-07-02T05:12:21;27.39;64.09
79026;DHT22;71097;44.760;37.726;2023-07-02T05:13:26;27.51;62.76
79026;DHT22;71097;44.760;37.726;2023-07-02T05:14:27;27.46;62.86
79026;DHT22;71097;44.760;37.726;2023-07-02T05:15:29;27.50;62.42
79026;DHT22;71097;44.760;37.726;2023-07-02T05:16:31;27.40;63.31
79026;DHT22;71097;44.760;37.726;2023-07-02T05:17:33;27.38;63.59
79026;DHT22;71097;44.760;37.726;2023-07-02T05:18:36;27.38;63.33
79026;DHT22;71097;44.760;37.726;2023-07-02T05:19:41;27.60;63.34
79026;DHT22;71097;44.760;37.726;2023-07-02T05:20:43;27.75;61.83
79026;DHT22;71097;44.760;37.726;2023-07-02T05:21:45;27.83;61.60
79026;DHT22;71097;44.760;37.726;2023-07-02T05:22:47;27.89;62.11
79026;DHT22;71097;44.760;37.726;2023-07-02T05:23:49;27.93;61.30
79026;DHT22;71097;44.760;37.726;2023-07-02T05:24:51;27.98;62.45
79026;DHT22;71097;44.760;37.726;2023-07-02T05:25:53;28.03;61.88
79026;DHT22;71097;44.760;37.726;2023-07-02T05:26:54;27.97;61.24
79026;DHT22;71097;44.760;37.726;2023-07-02T05:27:56;27.98;61.57
79026;DHT22;71097;44.760;37.726;2023-07-02T05:28:58;28.10;61.46
79026;DHT22;71097;44.760;37.726;2023-07-02T05:30:00;28.20;61.40
79026;DHT22;71097;44.760;37.726;2023-07-02T05:31:02;28.26;61.15
79026;DHT22;71097;44.760;37.726;2023-07-02T05:32:04;28.35;60.14
79026;DHT22;71097;44.760;37.726;2023-07-02T05:33:06;28.40;60.46
79026;DHT22;71097;44.760;37.726;2023-07-02T05:34:08;28.44;59.09
79026;DHT22;71097;44.760;37.726;2023-07-02T05:35:09;28.42;59.99
79026;DHT22;71097;44.760;37.726;2023-07-02T05:36:11;28.44;60.26
79026;DHT22;71097;44.760;37.726;2023-07-02T05:37:13;28.25;60.94
79026;DHT22;71097;44.760;37.726;2023-07-02T05:38:16;28.25;59.79
79026;DHT22;71097;44.760;37.726;2023-07-02T05:39:17;28.23;60.43
79026;DHT22;71097;44.760;37.726;2023-07-02T05:40:19;28.16;60.73
79026;DHT22;71097;44.760;37.726;2023-07-02T05:41:21;28.16;60.25
79026;DHT22;71097;44.760;37.726;2023-07-02T05:42:23;28.04;60.74
79026;DHT22;71097;44.760;37.726;2023-07-02T05:43:25;28.04;61.41
79026;DHT22;71097;44.760;37.726;2023-07-02T05:44:27;28.17;60.86
79026;DHT22;71097;44.760;37.726;2023-07-02T05:45:29;28.31;61.17
79026;DHT22;71097;44.760;37.726;2023-07-02T05:46:30;28.57;60.75
79026;DHT22;71097;44.760;37.726;2023-07-02T05:47:32;28.58;58.75
79026;DHT22;71097;44.760;37.726;2023-07-02T05:48:34;28.38;60.26
79026;DHT22;71097;44.760;37.726;2023-07-02T05:49:36;28.32;60.54
79026;DHT22;71097;44.760;37.726;2023-07-02T05:50:37;28.26;60.70
79026;DHT22;71097;44.760;37.726;2023-07-02T05:51:39;28.25;60.83
79026;DHT22;71097;44.760;37.726;2023-07-02T05:52:41;28.20;61.03
79026;DHT22;71097;44.760;37.726;2023-07-02T05:53:43;28.21;60.85
79026;DHT22;71097;44.760;37.726;2023-07-02T05:54:45;28.26;60.99
79026;DHT22;71097;44.760;37.726;2023-07-02T05:55:47;28.38;60.36
79026;DHT22;71097;44.760;37.726;2023-07-02T05:56:49;28.34;59.59
79026;DHT22;71097;44.760;37.726;2023-07-02T05:57:51;28.31;60.35
79026;DHT22;71097;44.760;37.726;2023-07-02T05:58:53;28.04;60.02
79026;DHT22;71097;44.760;37.726;2023-07-02T05:59:54;27.81;61.78
79026;DHT22;71097;44.760;37.726;2023-07-02T06:00:56;27.75;61.38
79026;DHT22;71097;44.760;37.726;2023-07-02T06:01:58;27.80;61.16
79026;DHT22;71097;44.760;37.726;2023-07-02T06:03:00;27.81;61.41
79026;DHT22;71097;44.760;37.726;2023-07-02T06:04:02;27.79;61.96
79026;DHT22;71097;44.760;37.726;2023-07-02T06:05:07;27.87;61.34
79026;DHT22;71097;44.760;37.726;2023-07-02T06:06:09;27.76;61.70
79026;DHT22;71097;44.760;37.726;2023-07-02T06:07:12;27.80;62.21
79026;DHT22;71097;44.760;37.726;2023-07-02T06:08:15;27.74;61.79
79026;DHT22;71097;44.760;37.726;2023-07-02T06:09:17;27.68;62.34
79026;DHT22;71097;44.760;37.726;2023-07-02T06:10:21;27.61;62.71
79026;DHT22;71097;44.760;37.726;2023-07-02T06:11:23;27.74;62.32
79026;DHT22;71097;44.760;37.726;2023-07-02T06:12:25;27.82;61.91
79026;DHT22;71097;44.760;37.726;2023-07-02T06:13:27;27.74;61.38
79026;DHT22;71097;44.760;37.726;2023-07-02T06:14:28;27.66;61.79
79026;DHT22;71097;44.760;37.726;2023-07-02T06:15:30;27.64;62.21
79026;DHT22;71097;44.760;37.726;2023-07-02T06:16:32;27.53;62.53
79026;DHT22;71097;44.760;37.726;2023-07-02T06:17:35;27.43;62.51
79026;DHT22;71097;44.760;37.726;2023-07-02T06:18:39;27.40;63.22
79026;DHT22;71097;44.760;37.726;2023-07-02T06:19:41;27.38;62.81
79026;DHT22;71097;44.760;37.726;2023-07-02T06:20:43;27.36;63.20
79026;DHT22;71097;44.760;37.726;2023-07-02T06:21:45;27.29;62.59
79026;DHT22;71097;44.760;37.726;2023-07-02T06:22:47;27.22;63.33
79026;DHT22;71097;44.760;37.726;2023-07-02T06:23:49;27.12;63.77
79026;DHT22;71097;44.760;37.726;2023-07-02T06:24:50;27.10;62.19
79026;DHT22;71097;44.760;37.726;2023-07-02T06:25:52;26.98;62.66
79026;DHT22;71097;44.760;37.726;2023-07-02T06:27:00;26.98;62.13
79026;DHT22;71097;44.760;37.726;2023-07-02T06:28:09;26.97;61.70